createdAt,value
2022-11-02T00:00:15.270Z,8.50
2022-11-02T00:02:42.075Z,6.27
2022-11-02T00:05:11.519Z,8.03
2022-11-02T00:07:38.148Z,6.90
2022-11-02T00:10:04.879Z,10.10
2022-11-02T00:12:31.490Z,9.23
2022-11-02T00:14:58.169Z,8.23
2022-11-02T00:17:24.939Z,6.07
2022-11-02T00:19:51.596Z,7.07
2022-11-02T00:22:18.178Z,8.07
2022-11-02T00:24:44.771Z,8.83
2022-11-02T00:27:11.431Z,10.10
2022-11-02T00:29:38.163Z,8.03
2022-11-02T00:32:05.918Z,6.47
2022-11-02T00:34:32.547Z,7.73
2022-11-02T00:36:59.749Z,11.93
2022-11-02T00:39:26.323Z,7.53
2022-11-02T00:41:53.491Z,6.83
2022-11-02T00:44:20.163Z,10.50
2022-11-02T00:46:46.761Z,9.37
2022-11-02T00:49:13.419Z,7.17
2022-11-02T00:51:40.120Z,9.83
2022-11-02T00:54:06.843Z,7.03
2022-11-02T00:56:33.972Z,7.10
2022-11-02T00:59:03.951Z,6.23
2022-11-02T01:01:31.827Z,5.83
2022-11-02T01:03:59.551Z,9.13
2022-11-02T01:06:26.282Z,7.87
2022-11-02T01:08:53.393Z,6.20
2022-11-02T01:11:21.431Z,5.83
2022-11-02T01:13:49.952Z,6.93
2022-11-02T01:16:18.114Z,7.50
2022-11-02T01:18:44.837Z,7.93
2022-11-02T01:21:12.482Z,6.27
2022-11-02T01:23:39.386Z,8.40
2022-11-02T01:26:07.318Z,13.03
2022-11-02T01:28:34.298Z,6.83
2022-11-02T01:31:01.087Z,8.27
2022-11-02T01:33:28.771Z,7.90
2022-11-02T01:35:55.536Z,6.93
2022-11-02T01:38:24.279Z,18.37
2022-11-02T01:40:51.075Z,6.90
2022-11-02T01:43:24.954Z,9.07
2022-11-02T01:45:54.724Z,7.00
2022-11-02T01:48:25.975Z,8.10
2022-11-02T01:50:52.610Z,7.97
2022-11-02T01:53:19.225Z,11.20
2022-11-02T01:55:45.911Z,6.37
2022-11-02T01:58:13.439Z,6.90
2022-11-02T02:00:40.468Z,8.97
2022-11-02T02:03:08.442Z,5.43
2022-11-02T02:05:41.276Z,8.13
2022-11-02T02:08:09.941Z,9.00
2022-11-02T02:10:36.888Z,4.10
2022-11-02T02:13:06.386Z,6.50
2022-11-02T02:15:40.511Z,6.70
2022-11-02T02:18:10.739Z,7.83
2022-11-02T02:20:37.521Z,5.67
2022-11-02T02:23:11.789Z,9.07
2022-11-02T02:25:51.808Z,5.00
2022-11-02T02:28:22.390Z,4.73
2022-11-02T02:30:56.928Z,5.57
2022-11-02T02:33:35.904Z,6.10
2022-11-02T02:36:12.688Z,10.43
2022-11-02T02:38:39.217Z,6.73
2022-11-02T02:41:14.682Z,6.33
2022-11-02T02:43:47.270Z,5.93
2022-11-02T02:46:18.061Z,5.73
2022-11-02T02:48:46.056Z,4.53
2022-11-02T02:51:15.926Z,6.27
2022-11-02T02:53:48.303Z,9.37
2022-11-02T02:56:19.316Z,6.30
2022-11-02T02:58:52.826Z,4.87
2022-11-02T03:01:19.965Z,5.30
2022-11-02T03:03:47.155Z,5.03
2022-11-02T03:06:25.318Z,7.33
2022-11-02T03:08:59.270Z,6.93
2022-11-02T03:11:27.230Z,5.00
2022-11-02T03:14:03.248Z,6.87
2022-11-02T03:16:30.977Z,6.17
2022-11-02T03:19:06.776Z,12.40
2022-11-02T03:21:36.377Z,6.33
2022-11-02T03:24:03.482Z,9.07
2022-11-02T03:26:39.482Z,10.73
2022-11-02T03:29:21.669Z,8.33
2022-11-02T03:31:48.298Z,7.07
2022-11-02T03:34:20.611Z,6.77
2022-11-02T03:37:00.348Z,6.17
2022-11-02T03:39:32.758Z,9.60
2022-11-02T03:42:01.048Z,9.60
2022-11-02T03:44:30.463Z,6.47
2022-11-02T03:47:00.078Z,2.53
2022-11-02T03:49:28.602Z,4.07
2022-11-02T03:51:57.166Z,10.00
2022-11-02T03:54:36.389Z,5.93
2022-11-02T03:59:32.682Z,4.73
2022-11-02T04:02:00.418Z,5.47
2022-11-02T04:04:28.624Z,5.87
2022-11-02T04:06:56.237Z,8.70
2022-11-02T04:09:22.872Z,6.63
2022-11-02T04:12:08.247Z,8.97
2022-11-02T04:14:37.885Z,9.23
2022-11-02T04:20:17.290Z,6.57
2022-11-02T04:23:02.850Z,9.73
2022-11-02T04:25:29.465Z,7.23
2022-11-02T04:28:24.973Z,7.33
2022-11-02T04:30:59.570Z,7.87
2022-11-02T04:33:33.771Z,6.17
2022-11-02T04:36:07.722Z,6.93
2022-11-02T04:38:41.504Z,6.47
2022-11-02T04:41:42.810Z,7.17
2022-11-02T04:44:26.275Z,3.90
2022-11-02T04:47:02.276Z,6.67
2022-11-02T04:49:31.939Z,6.63
2022-11-02T04:51:59.055Z,7.30
2022-11-02T04:54:28.237Z,5.93
2022-11-02T04:56:58.715Z,9.13
2022-11-02T04:59:26.608Z,6.80
2022-11-02T05:01:53.435Z,10.13
2022-11-02T05:04:20.943Z,6.70
2022-11-02T05:06:48.787Z,8.93
2022-11-02T05:09:15.488Z,6.90
2022-11-02T05:11:46.263Z,9.47
2022-11-02T05:14:12.860Z,7.03
2022-11-02T05:16:39.468Z,5.27
2022-11-02T05:19:10.830Z,6.10
2022-11-02T05:21:39.247Z,9.30
2022-11-02T05:24:06.589Z,10.03
2022-11-02T05:26:33.826Z,5.20
2022-11-02T05:29:00.519Z,8.93
2022-11-02T05:31:28.138Z,7.80
2022-11-02T05:33:56.875Z,10.50
2022-11-02T05:36:23.683Z,13.80
2022-11-02T05:38:52.541Z,7.97
2022-11-02T05:41:20.467Z,7.57
2022-11-02T05:43:48.374Z,7.50
2022-11-02T05:46:16.459Z,6.83
2022-11-02T05:48:43.116Z,12.30
2022-11-02T05:51:10.141Z,8.87
2022-11-02T05:53:38.459Z,9.37
2022-11-02T05:56:06.107Z,7.03
2022-11-02T05:58:33.138Z,9.80
2022-11-02T06:01:03.136Z,9.47
2022-11-02T06:03:30.182Z,7.97
2022-11-02T06:05:57.903Z,10.27
2022-11-02T06:08:24.525Z,11.20
2022-11-02T06:10:51.116Z,10.97
2022-11-02T06:13:17.718Z,6.23
2022-11-02T06:15:44.315Z,6.97
2022-11-02T06:18:10.952Z,6.67
2022-11-02T06:20:37.744Z,12.00
2022-11-02T06:23:04.788Z,7.63
2022-11-02T06:25:31.717Z,12.17
2022-11-02T06:27:58.407Z,8.53
2022-11-02T06:30:29.387Z,10.57
2022-11-02T06:32:56.158Z,6.87
2022-11-02T06:35:23.196Z,6.47
2022-11-02T06:37:49.831Z,9.10
2022-11-02T06:40:17.145Z,11.20
2022-11-02T06:42:56.541Z,8.97
2022-11-02T06:45:31.710Z,10.33
2022-11-02T06:47:58.383Z,6.73
2022-11-02T06:50:25.044Z,6.53
2022-11-02T06:52:51.862Z,11.80
2022-11-02T06:55:18.739Z,7.13
2022-11-02T06:57:45.884Z,9.00
2022-11-02T07:00:15.447Z,10.23
2022-11-02T07:02:45.272Z,6.70
2022-11-02T07:05:12.237Z,6.77
2022-11-02T07:07:38.917Z,7.90
2022-11-02T07:10:06.169Z,10.23
2022-11-02T07:12:33.290Z,10.57
2022-11-02T07:14:59.953Z,8.60
2022-11-02T07:17:31.905Z,7.03
2022-11-02T07:19:59.258Z,8.70
2022-11-02T07:22:26.103Z,8.87
2022-11-02T07:24:52.806Z,11.90
2022-11-02T07:27:20.807Z,5.97
2022-11-02T07:29:48.519Z,9.27
2022-11-02T07:32:15.138Z,9.33
2022-11-02T07:34:41.846Z,7.87
2022-11-02T07:37:08.518Z,11.07
2022-11-02T07:39:35.196Z,9.70
2022-11-02T07:42:01.936Z,9.27
2022-11-02T07:44:29.653Z,8.70
2022-11-02T07:46:56.701Z,6.63
2022-11-02T07:49:23.396Z,9.23
2022-11-02T07:51:50.246Z,11.00
2022-11-02T07:54:16.941Z,10.77
2022-11-02T07:56:46.591Z,13.73
2022-11-02T07:59:13.349Z,14.13
2022-11-02T08:01:40.181Z,10.70
2022-11-02T08:04:06.939Z,13.63
2022-11-02T08:06:34.810Z,11.60
2022-11-02T08:09:03.012Z,8.53
2022-11-02T08:11:29.957Z,9.73
2022-11-02T08:13:56.932Z,11.17
2022-11-02T08:16:23.635Z,8.67
2022-11-02T08:18:50.476Z,8.60
2022-11-02T08:21:17.142Z,14.33
2022-11-02T08:23:43.942Z,10.13
2022-11-02T08:26:10.687Z,8.70
2022-11-02T08:28:40.447Z,10.33
2022-11-02T08:31:11.206Z,11.67
2022-11-02T08:33:37.956Z,15.90
2022-11-02T08:36:05.019Z,8.70
2022-11-02T08:38:32.110Z,11.47
2022-11-02T08:40:58.866Z,9.00
2022-11-02T08:43:25.632Z,9.30
2022-11-02T08:46:13.884Z,11.37
2022-11-02T08:48:38.953Z,7.20
2022-11-02T08:51:05.815Z,10.87
2022-11-02T08:53:32.493Z,8.93
2022-11-02T08:55:59.291Z,7.47
2022-11-02T08:58:26.282Z,10.17
2022-11-02T09:00:54.115Z,13.13
2022-11-02T09:03:26.147Z,9.87
2022-11-02T09:05:58.150Z,10.10
2022-11-02T09:08:25.766Z,11.60
2022-11-02T09:10:52.970Z,10.27
2022-11-02T09:13:25.168Z,8.93
2022-11-02T09:15:53.458Z,11.97
2022-11-02T09:18:20.496Z,8.80
2022-11-02T09:20:48.675Z,11.90
2022-11-02T09:23:19.138Z,6.57
2022-11-02T09:25:46.140Z,4.23
2022-11-02T09:28:14.049Z,12.70
2022-11-02T09:30:41.305Z,6.33
2022-11-02T09:33:08.514Z,9.47
2022-11-02T09:35:36.814Z,13.53
2022-11-02T09:38:03.751Z,11.37
2022-11-02T09:40:35.354Z,11.80
2022-11-02T09:43:20.675Z,10.53
2022-11-02T09:45:47.365Z,10.77
2022-11-02T09:48:22.145Z,11.70
2022-11-02T09:51:13.840Z,7.13
2022-11-02T09:53:59.387Z,9.87
2022-11-02T09:56:26.878Z,8.40
2022-11-02T09:58:57.236Z,14.23
2022-11-02T10:01:35.999Z,9.17
2022-11-02T10:04:14.613Z,8.83
2022-11-02T10:06:44.004Z,8.27
2022-11-02T10:09:10.557Z,9.40
2022-11-02T10:11:43.215Z,11.70
2022-11-02T10:14:19.679Z,11.50
2022-11-02T10:16:50.753Z,8.97
2022-11-02T10:19:19.592Z,7.47
2022-11-02T10:21:47.324Z,11.20
2022-11-02T10:24:30.299Z,8.27
2022-11-02T10:26:59.510Z,7.33
2022-11-02T10:29:45.501Z,10.10
2022-11-02T10:32:13.142Z,8.73
2022-11-02T10:34:40.434Z,9.70
2022-11-02T10:37:22.296Z,8.87
2022-11-02T10:40:03.975Z,10.17
2022-11-02T10:42:44.640Z,6.50
2022-11-02T10:45:30.070Z,8.47
2022-11-02T10:48:07.935Z,9.97
2022-11-02T10:50:53.375Z,7.97
2022-11-02T10:53:41.245Z,7.20
2022-11-02T10:56:11.124Z,11.30
2022-11-02T10:58:40.323Z,9.00
2022-11-02T11:01:07.911Z,6.17
2022-11-02T11:03:34.927Z,8.77
2022-11-02T11:06:04.891Z,8.67
2022-11-02T11:08:35.423Z,10.40
2022-11-02T11:11:13.295Z,9.33
2022-11-02T11:16:35.516Z,8.63
2022-11-02T11:21:50.048Z,8.33
2022-11-02T11:24:21.585Z,9.63
2022-11-02T11:27:05.512Z,8.53
2022-11-02T11:29:33.631Z,7.40
2022-11-02T11:32:01.160Z,9.40
2022-11-02T11:34:29.587Z,6.53
2022-11-02T11:37:07.852Z,5.53
2022-11-02T11:39:34.667Z,5.33
2022-11-02T11:42:02.690Z,9.23
2022-11-02T11:44:29.466Z,6.30
2022-11-02T11:46:57.371Z,5.10
2022-11-02T11:50:07.686Z,6.93
2022-11-02T11:52:31.655Z,10.50
2022-11-02T11:55:18.913Z,8.23
2022-11-02T11:57:45.911Z,6.30
2022-11-02T12:00:25.844Z,10.67
2022-11-02T12:03:03.619Z,7.63
2022-11-02T12:05:30.723Z,5.87
2022-11-02T12:08:12.500Z,6.63
2022-11-02T12:10:51.080Z,4.50
2022-11-02T12:13:17.719Z,5.73
2022-11-02T12:16:03.610Z,5.70
2022-11-02T12:18:30.237Z,6.77
2022-11-02T12:21:10.346Z,6.33
2022-11-02T12:23:55.776Z,5.27
2022-11-02T12:26:31.727Z,9.83
2022-11-02T12:29:07.106Z,7.47
2022-11-02T12:31:37.647Z,6.80
2022-11-02T12:34:09.920Z,6.53
2022-11-02T12:36:46.154Z,10.07
2022-11-02T12:39:42.345Z,5.90
2022-11-02T12:42:28.541Z,7.73
2022-11-02T12:45:13.809Z,6.73
2022-11-02T12:47:53.117Z,7.93
2022-11-02T12:50:35.102Z,7.10
2022-11-02T12:53:10.857Z,11.03
2022-11-02T12:55:43.264Z,7.00
2022-11-02T12:58:17.797Z,8.80
2022-11-02T13:00:45.468Z,10.13
2022-11-02T13:03:12.309Z,8.03
2022-11-02T13:05:41.161Z,7.83
2022-11-02T13:08:14.437Z,8.03
2022-11-02T13:10:47.194Z,9.73
2022-11-02T13:13:20.549Z,6.90
2022-11-02T13:15:47.837Z,10.77
2022-11-02T13:18:24.153Z,7.33
2022-11-02T13:20:55.939Z,9.23
2022-11-02T13:25:59.674Z,10.67
2022-11-02T13:28:35.227Z,8.40
2022-11-02T13:31:10.067Z,6.17
2022-11-02T13:33:48.435Z,6.50
2022-11-02T13:36:15.279Z,10.33
2022-11-02T13:38:47.045Z,5.43
2022-11-02T13:41:32.590Z,8.53
2022-11-02T13:43:59.892Z,10.07
2022-11-02T13:46:29.385Z,9.10
2022-11-02T13:49:05.419Z,6.73
2022-11-02T13:51:37.697Z,8.37
2022-11-02T13:54:07.345Z,8.90
2022-11-02T13:56:35.754Z,5.37
2022-11-02T13:59:07.432Z,8.43
2022-11-02T14:01:36.664Z,5.43
2022-11-02T14:04:08.047Z,12.37
2022-11-02T14:06:44.602Z,10.90
2022-11-02T14:09:20.726Z,8.27
2022-11-02T14:11:48.557Z,6.40
2022-11-02T14:14:15.146Z,7.33
2022-11-02T14:16:42.271Z,5.63
2022-11-02T14:19:19.349Z,7.43
2022-11-02T14:21:53.342Z,4.80
2022-11-02T14:24:32.276Z,7.17
2022-11-02T14:26:59.950Z,4.40
2022-11-02T14:29:41.988Z,4.83
2022-11-02T14:32:16.862Z,6.97
2022-11-02T14:34:53.048Z,7.43
2022-11-02T14:37:38.306Z,6.60
2022-11-02T14:40:10.635Z,7.33
2022-11-02T14:42:52.953Z,8.23
2022-11-02T14:45:32.598Z,6.23
2022-11-02T14:48:00.671Z,7.07
2022-11-02T14:50:27.611Z,5.57
2022-11-02T14:53:00.463Z,6.57
2022-11-02T14:55:32.097Z,6.57
2022-11-02T14:57:58.751Z,7.00
2022-11-02T15:00:31.070Z,7.13
2022-11-02T15:02:58.027Z,6.37
2022-11-02T15:05:38.256Z,5.77
2022-11-02T15:08:06.726Z,4.93
2022-11-02T15:10:38.291Z,7.87
2022-11-02T15:13:20.280Z,4.00
2022-11-02T15:15:51.336Z,4.33
2022-11-02T15:18:30.015Z,5.97
2022-11-02T15:21:10.816Z,5.10
2022-11-02T15:23:43.657Z,6.90
2022-11-02T15:26:14.710Z,6.13
2022-11-02T15:28:43.064Z,8.20
2022-11-02T15:31:24.732Z,7.37
2022-11-02T15:33:55.011Z,6.37
2022-11-02T15:36:25.039Z,7.80
2022-11-02T15:38:52.825Z,8.00
2022-11-02T15:41:28.433Z,9.07
2022-11-02T15:44:12.343Z,6.47
2022-11-02T15:46:57.291Z,6.47
2022-11-02T15:49:34.002Z,7.37
2022-11-02T15:52:28.651Z,7.20
2022-11-02T15:55:06.873Z,6.90
2022-11-02T15:57:36.602Z,5.70
2022-11-02T16:00:09.405Z,6.83
2022-11-02T16:02:46.867Z,5.83
2022-11-02T16:05:20.761Z,5.10
2022-11-02T16:08:20.755Z,9.67
2022-11-02T16:10:35.259Z,7.87
2022-11-02T16:13:08.063Z,7.43
2022-11-02T16:15:34.683Z,9.77
2022-11-02T16:18:01.397Z,7.00
2022-11-02T16:20:34.627Z,4.27
2022-11-02T16:23:02.361Z,9.57
2022-11-02T16:25:45.092Z,5.73
2022-11-02T16:28:21.183Z,5.87
2022-11-02T16:31:01.675Z,9.37
2022-11-02T16:33:29.828Z,7.40
2022-11-02T16:35:57.550Z,8.97
2022-11-02T16:38:24.401Z,7.90
2022-11-02T16:40:51.221Z,8.97
2022-11-02T16:43:24.847Z,7.03
2022-11-02T16:45:58.730Z,8.50
2022-11-02T16:48:29.109Z,8.97
2022-11-02T16:51:08.079Z,7.27
2022-11-02T16:53:37.352Z,5.40
2022-11-02T16:56:32.171Z,7.87
2022-11-02T16:59:03.168Z,7.20
2022-11-02T17:01:39.953Z,6.47
2022-11-02T17:04:26.645Z,9.37
2022-11-02T17:06:55.238Z,6.53
2022-11-02T17:09:23.786Z,6.17
2022-11-02T17:11:50.968Z,8.33
2022-11-02T17:14:19.403Z,7.97
2022-11-02T17:17:01.260Z,7.80
2022-11-02T17:19:40.075Z,7.47
2022-11-02T17:22:15.642Z,8.80
2022-11-02T17:24:44.325Z,6.43
2022-11-02T17:27:24.892Z,9.17
2022-11-02T17:29:52.242Z,8.77
2022-11-02T17:32:19.750Z,5.63
2022-11-02T17:34:49.363Z,11.40
2022-11-02T17:37:29.234Z,7.70
2022-11-02T17:39:56.931Z,6.53
2022-11-02T17:42:42.448Z,4.47
2022-11-02T17:45:21.372Z,6.57
2022-11-02T17:47:47.974Z,8.73
2022-11-02T17:50:14.578Z,8.47
2022-11-02T17:52:41.171Z,8.97
2022-11-02T17:55:13.121Z,7.67
2022-11-02T17:57:39.681Z,6.00
2022-11-02T18:00:06.628Z,7.80
2022-11-02T18:02:39.084Z,8.80
2022-11-02T18:05:11.429Z,9.37
2022-11-02T18:07:38.034Z,11.07
2022-11-02T18:10:04.734Z,17.50
2022-11-02T18:12:31.307Z,9.33
2022-11-02T18:14:57.885Z,27.03
2022-11-02T18:17:24.420Z,15.67
2022-11-02T18:19:50.975Z,17.73
2022-11-02T18:22:17.610Z,11.93
2022-11-02T18:24:44.313Z,11.53
2022-11-02T18:27:10.874Z,14.50
2022-11-02T18:29:37.884Z,17.67
2022-11-02T18:32:05.517Z,14.07
2022-11-02T18:34:32.105Z,11.60
2022-11-02T18:36:58.877Z,11.17
2022-11-02T18:39:25.722Z,10.40
2022-11-02T18:41:53.415Z,11.13
2022-11-02T18:44:20.003Z,16.53
2022-11-02T18:46:46.589Z,10.00
2022-11-02T18:49:13.225Z,16.43
2022-11-02T18:51:43.209Z,8.07
2022-11-02T18:54:09.934Z,9.97
2022-11-02T18:56:36.492Z,97.20
2022-11-02T18:59:03.179Z,39.63
2022-11-02T19:01:29.945Z,22.20
2022-11-02T19:03:57.692Z,29.07
2022-11-02T19:06:43.226Z,17.60
2022-11-02T19:09:20.364Z,19.57
2022-11-02T19:12:05.912Z,22.57
2022-11-02T19:14:37.106Z,39.87
2022-11-02T19:17:04.474Z,175.67
2022-11-02T19:19:31.193Z,36.47
2022-11-02T19:21:57.761Z,357.90
2022-11-02T19:24:24.623Z,578.27
2022-11-02T19:26:51.619Z,263.70
2022-11-02T19:29:18.542Z,82.43
2022-11-02T19:31:45.322Z,9.50
2022-11-02T19:34:12.092Z,6.80
2022-11-02T19:36:38.998Z,12.17
2022-11-02T19:39:07.577Z,13.13
2022-11-02T19:41:34.375Z,11.27
2022-11-02T19:44:01.136Z,10.57
2022-11-02T19:46:28.047Z,8.00
2022-11-02T19:48:56.384Z,8.10
2022-11-02T19:51:24.707Z,14.00
2022-11-02T19:53:52.438Z,9.43
2022-11-02T19:56:20.000Z,8.00
2022-11-02T19:58:47.981Z,9.27
2022-11-02T20:01:18.666Z,10.43
2022-11-02T20:03:46.336Z,15.80
2022-11-02T20:06:18.816Z,9.67
2022-11-02T20:08:48.675Z,9.17
2022-11-02T20:11:15.398Z,12.40
2022-11-02T20:13:43.178Z,14.23
2022-11-02T20:16:11.600Z,10.10
2022-11-02T20:18:39.041Z,10.93
2022-11-02T20:21:06.611Z,12.57
2022-11-02T20:23:34.304Z,9.23
2022-11-02T20:26:02.563Z,13.87
2022-11-02T20:28:29.605Z,10.70
2022-11-02T20:30:56.389Z,6.23
2022-11-02T20:33:23.364Z,8.30
2022-11-02T20:35:50.147Z,8.50
2022-11-02T20:38:16.819Z,9.80
2022-11-02T20:40:43.433Z,10.97
2022-11-02T20:43:10.131Z,10.70
2022-11-02T20:45:36.944Z,10.97
2022-11-02T20:48:04.279Z,11.97
2022-11-02T20:50:31.314Z,12.20
2022-11-02T20:52:58.971Z,8.87
2022-11-02T20:55:25.680Z,9.90
2022-11-02T20:57:52.342Z,13.07
2022-11-02T21:00:19.171Z,7.70
2022-11-02T21:02:46.289Z,13.13
2022-11-02T21:05:13.217Z,6.60
2022-11-02T21:07:40.275Z,7.53
2022-11-02T21:10:07.561Z,8.83
2022-11-02T21:12:53.054Z,9.27
2022-11-02T21:15:19.871Z,12.07
2022-11-02T21:17:46.658Z,6.47
2022-11-02T21:20:33.123Z,8.17
2022-11-02T21:23:01.586Z,10.77
2022-11-02T21:25:28.405Z,10.20
2022-11-02T21:27:55.736Z,8.13
2022-11-02T21:30:22.541Z,15.27
2022-11-02T21:32:52.717Z,9.03
2022-11-02T21:35:19.713Z,11.87
2022-11-02T21:37:46.544Z,10.70
2022-11-02T21:40:13.471Z,15.70
2022-11-02T21:42:40.395Z,6.97
2022-11-02T21:45:07.386Z,10.63
2022-11-02T21:47:34.714Z,10.93
2022-11-02T21:50:11.222Z,12.33
2022-11-02T21:52:41.015Z,7.47
2022-11-02T21:55:11.501Z,8.13
2022-11-02T21:57:38.108Z,8.63
2022-11-02T22:00:04.971Z,11.93
2022-11-02T22:02:39.341Z,6.97
2022-11-02T22:05:06.071Z,5.27
2022-11-02T22:07:52.645Z,7.57
2022-11-02T22:10:19.288Z,11.60
2022-11-02T22:13:04.698Z,10.37
2022-11-02T22:15:34.529Z,12.17
2022-11-02T22:18:04.831Z,7.27
2022-11-02T22:20:31.483Z,10.47
2022-11-02T22:22:58.358Z,9.97
2022-11-02T22:25:25.239Z,8.43
2022-11-02T22:27:51.868Z,9.40
2022-11-02T22:30:18.436Z,10.40
2022-11-02T22:32:45.035Z,10.03
2022-11-02T22:35:11.709Z,6.70
2022-11-02T22:37:56.928Z,11.07
2022-11-02T22:40:23.500Z,9.87
2022-11-02T22:42:53.560Z,10.70
2022-11-02T22:45:20.220Z,9.27
2022-11-02T22:47:46.801Z,8.63
2022-11-02T22:50:13.382Z,9.30
2022-11-02T22:52:39.929Z,8.43
2022-11-02T22:55:06.711Z,10.27
2022-11-02T22:57:33.276Z,8.10
2022-11-02T22:59:59.826Z,8.07
2022-11-02T23:02:26.464Z,6.93
2022-11-02T23:04:53.055Z,8.47
2022-11-02T23:07:19.681Z,7.03
2022-11-02T23:09:46.225Z,7.83
2022-11-02T23:12:12.781Z,8.00
2022-11-02T23:14:39.333Z,10.90
2022-11-02T23:17:05.922Z,9.10
2022-11-02T23:19:33.175Z,9.27
2022-11-02T23:22:22.389Z,5.83
2022-11-02T23:25:11.337Z,7.27
2022-11-02T23:27:58.962Z,6.80
2022-11-02T23:30:45.581Z,7.47
2022-11-02T23:33:12.313Z,8.90
2022-11-02T23:35:57.730Z,5.67
2022-11-02T23:38:24.388Z,9.10
2022-11-02T23:40:54.472Z,11.40
2022-11-02T23:43:21.070Z,9.43
2022-11-02T23:45:47.693Z,7.83
2022-11-02T23:51:19.492Z,10.43
2022-11-02T23:54:04.833Z,7.67
2022-11-02T23:56:44.474Z,8.43
2022-11-02T23:59:15.132Z,7.53
